Brooks, Canada
Current Conditions -  °F | °C
As of 6:00 AM on Thursday 27 Nov 2014 (Local Time) from CYXH Reporting Station
Light Snow Light Snow  
Wind Chill: 20°   Ceiling: 1800
Heat Index: 28°   Visibility: 2mi
Dew Point: 28°   Wind: 9mph
Humidity: 100%   Direction: 60°ENE
Pressure: 29.79"   Gusts: NA
Location:  50.57°N, 111.9°W
Report Text: CYXH 271300Z 06008KT 2SM -SN BKN018 OVC030 M02/M02 A2979 RMK SC5SC3 SOG 7CM SLP119
Loading
Personal Weather Stations






























Interactive Weather Map New forecast layout! Learn more

10-Day Weather Forecast

Advertisements
Track Severe Weather on mobile